sensor_id;sensor_type;location;lat;lon;timestamp;P1;durP1;ratioP1;P2;durP2;ratioP2
12768;SDS011;6448;48.916;8.990;2024-01-30T00:00:56;4.40;;;4.00;;
12768;SDS011;6448;48.916;8.990;2024-01-30T00:02:00;4.35;;;3.97;;
12768;SDS011;6448;48.916;8.990;2024-01-30T00:03:00;4.18;;;3.88;;
12768;SDS011;6448;48.916;8.990;2024-01-30T00:04:02;3.97;;;3.67;;
12768;SDS011;6448;48.916;8.990;2024-01-30T00:05:03;4.13;;;3.83;;
12768;SDS011;6448;48.916;8.990;2024-01-30T00:06:06;4.10;;;3.70;;
12768;SDS011;6448;48.916;8.990;2024-01-30T00:07:08;4.25;;;3.90;;
12768;SDS011;6448;48.916;8.990;2024-01-30T00:08:08;4.35;;;3.95;;
12768;SDS011;6448;48.916;8.990;2024-01-30T00:09:10;4.10;;;3.70;;
12768;SDS011;6448;48.916;8.990;2024-01-30T00:10:11;4.60;;;4.20;;
12768;SDS011;6448;48.916;8.990;2024-01-30T00:11:13;4.90;;;4.40;;
12768;SDS011;6448;48.916;8.990;2024-01-30T00:12:14;4.15;;;3.75;;
12768;SDS011;6448;48.916;8.990;2024-01-30T00:13:16;4.30;;;3.90;;
12768;SDS011;6448;48.916;8.990;2024-01-30T00:14:19;4.10;;;3.80;;
12768;SDS011;6448;48.916;8.990;2024-01-30T00:15:21;4.30;;;3.90;;
12768;SDS011;6448;48.916;8.990;2024-01-30T00:16:22;4.20;;;3.80;;
12768;SDS011;6448;48.916;8.990;2024-01-30T00:17:26;3.90;;;3.60;;
12768;SDS011;6448;48.916;8.990;2024-01-30T00:18:27;4.05;;;3.65;;
12768;SDS011;6448;48.916;8.990;2024-01-30T00:19:29;3.90;;;3.60;;
12768;SDS011;6448;48.916;8.990;2024-01-30T00:20:29;3.47;;;3.17;;
12768;SDS011;6448;48.916;8.990;2024-01-30T00:21:31;3.17;;;2.92;;
12768;SDS011;6448;48.916;8.990;2024-01-30T00:22:32;3.10;;;2.80;;
12768;SDS011;6448;48.916;8.990;2024-01-30T00:23:34;3.42;;;3.13;;
12768;SDS011;6448;48.916;8.990;2024-01-30T00:24:34;3.53;;;3.22;;
12768;SDS011;6448;48.916;8.990;2024-01-30T00:25:35;3.90;;;3.20;;
12768;SDS011;6448;48.916;8.990;2024-01-30T00:26:37;3.20;;;3.00;;
12768;SDS011;6448;48.916;8.990;2024-01-30T00:27:38;3.20;;;2.90;;
12768;SDS011;6448;48.916;8.990;2024-01-30T00:28:40;2.95;;;2.67;;
12768;SDS011;6448;48.916;8.990;2024-01-30T00:29:40;3.80;;;3.50;;
12768;SDS011;6448;48.916;8.990;2024-01-30T00:30:42;4.97;;;4.57;;
12768;SDS011;6448;48.916;8.990;2024-01-30T00:31:43;4.97;;;4.57;;
12768;SDS011;6448;48.916;8.990;2024-01-30T00:32:46;5.50;;;5.00;;
12768;SDS011;6448;48.916;8.990;2024-01-30T00:33:47;5.65;;;5.15;;
12768;SDS011;6448;48.916;8.990;2024-01-30T00:34:49;5.25;;;4.85;;
12768;SDS011;6448;48.916;8.990;2024-01-30T00:35:49;5.50;;;5.00;;
12768;SDS011;6448;48.916;8.990;2024-01-30T00:36:51;5.70;;;5.20;;
12768;SDS011;6448;48.916;8.990;2024-01-30T00:37:52;5.60;;;5.10;;
12768;SDS011;6448;48.916;8.990;2024-01-30T00:38:53;5.40;;;5.00;;
12768;SDS011;6448;48.916;8.990;2024-01-30T00:39:54;5.40;;;4.90;;
12768;SDS011;6448;48.916;8.990;2024-01-30T00:40:55;5.90;;;5.40;;
12768;SDS011;6448;48.916;8.990;2024-01-30T00:41:57;5.65;;;5.15;;
12768;SDS011;6448;48.916;8.990;2024-01-30T00:42:58;5.88;;;5.38;;
12768;SDS011;6448;48.916;8.990;2024-01-30T00:43:59;5.53;;;5.00;;
12768;SDS011;6448;48.916;8.990;2024-01-30T00:45:00;5.10;;;4.68;;
12768;SDS011;6448;48.916;8.990;2024-01-30T00:46:01;4.80;;;4.40;;
12768;SDS011;6448;48.916;8.990;2024-01-30T00:47:03;4.82;;;4.43;;
12768;SDS011;6448;48.916;8.990;2024-01-30T00:48:06;4.57;;;4.18;;
12768;SDS011;6448;48.916;8.990;2024-01-30T00:49:07;4.30;;;4.00;;
12768;SDS011;6448;48.916;8.990;2024-01-30T00:50:08;4.40;;;4.05;;
12768;SDS011;6448;48.916;8.990;2024-01-30T00:51:09;4.28;;;3.88;;
12768;SDS011;6448;48.916;8.990;2024-01-30T00:52:11;3.90;;;3.60;;
12768;SDS011;6448;48.916;8.990;2024-01-30T00:53:12;4.00;;;3.70;;
12768;SDS011;6448;48.916;8.990;2024-01-30T00:54:14;4.13;;;3.72;;
12768;SDS011;6448;48.916;8.990;2024-01-30T00:55:15;4.00;;;3.70;;
12768;SDS011;6448;48.916;8.990;2024-01-30T00:56:16;3.83;;;3.50;;
12768;SDS011;6448;48.916;8.990;2024-01-30T00:57:18;3.85;;;3.55;;
12768;SDS011;6448;48.916;8.990;2024-01-30T00:58:19;4.13;;;3.83;;
12768;SDS011;6448;48.916;8.990;2024-01-30T00:59:19;3.78;;;3.47;;
12768;SDS011;6448;48.916;8.990;2024-01-30T01:00:21;3.80;;;3.50;;
12768;SDS011;6448;48.916;8.990;2024-01-30T01:01:23;3.83;;;3.53;;
12768;SDS011;6448;48.916;8.990;2024-01-30T01:02:25;4.07;;;3.67;;
12768;SDS011;6448;48.916;8.990;2024-01-30T01:03:27;4.43;;;4.03;;
12768;SDS011;6448;48.916;8.990;2024-01-30T01:04:28;4.38;;;3.97;;
12768;SDS011;6448;48.916;8.990;2024-01-30T01:05:29;3.97;;;3.67;;
12768;SDS011;6448;48.916;8.990;2024-01-30T01:06:30;3.97;;;3.60;;
12768;SDS011;6448;48.916;8.990;2024-01-30T01:07:32;4.10;;;3.80;;
12768;SDS011;6448;48.916;8.990;2024-01-30T01:08:32;3.88;;;3.58;;
12768;SDS011;6448;48.916;8.990;2024-01-30T01:09:34;4.30;;;3.90;;
12768;SDS011;6448;48.916;8.990;2024-01-30T01:10:35;4.43;;;4.03;;
12768;SDS011;6448;48.916;8.990;2024-01-30T01:11:37;4.63;;;4.22;;
12768;SDS011;6448;48.916;8.990;2024-01-30T01:12:38;4.00;;;3.70;;
12768;SDS011;6448;48.916;8.990;2024-01-30T01:13:39;4.65;;;4.25;;
12768;SDS011;6448;48.916;8.990;2024-01-30T01:14:40;5.00;;;4.55;;
12768;SDS011;6448;48.916;8.990;2024-01-30T01:15:42;4.65;;;4.25;;
12768;SDS011;6448;48.916;8.990;2024-01-30T01:16:43;5.03;;;4.63;;
12768;SDS011;6448;48.916;8.990;2024-01-30T01:17:44;4.38;;;3.97;;
12768;SDS011;6448;48.916;8.990;2024-01-30T01:18:47;4.80;;;4.40;;
12768;SDS011;6448;48.916;8.990;2024-01-30T01:19:49;4.40;;;4.00;;
12768;SDS011;6448;48.916;8.990;2024-01-30T01:20:50;4.88;;;4.43;;
12768;SDS011;6448;48.916;8.990;2024-01-30T01:21:51;4.40;;;4.00;;
12768;SDS011;6448;48.916;8.990;2024-01-30T01:22:53;4.75;;;4.30;;
12768;SDS011;6448;48.916;8.990;2024-01-30T01:23:54;4.65;;;4.25;;
12768;SDS011;6448;48.916;8.990;2024-01-30T01:24:55;4.70;;;4.30;;
12768;SDS011;6448;48.916;8.990;2024-01-30T01:25:56;6.43;;;5.75;;
12768;SDS011;6448;48.916;8.990;2024-01-30T01:26:59;7.70;;;6.90;;
12768;SDS011;6448;48.916;8.990;2024-01-30T01:28:00;8.32;;;7.30;;
12768;SDS011;6448;48.916;8.990;2024-01-30T01:29:02;8.48;;;7.38;;
12768;SDS011;6448;48.916;8.990;2024-01-30T01:30:10;8.05;;;7.25;;
12768;SDS011;6448;48.916;8.990;2024-01-30T01:31:18;8.02;;;7.22;;
12768;SDS011;6448;48.916;8.990;2024-01-30T01:32:19;7.95;;;7.15;;
12768;SDS011;6448;48.916;8.990;2024-01-30T01:33:21;9.18;;;7.40;;
12768;SDS011;6448;48.916;8.990;2024-01-30T01:34:23;8.25;;;7.40;;
12768;SDS011;6448;48.916;8.990;2024-01-30T01:35:25;9.57;;;8.57;;
12768;SDS011;6448;48.916;8.990;2024-01-30T01:36:26;11.77;;;10.57;;
12768;SDS011;6448;48.916;8.990;2024-01-30T01:37:28;12.25;;;10.95;;
12768;SDS011;6448;48.916;8.990;2024-01-30T01:38:29;12.25;;;10.98;;
12768;SDS011;6448;48.916;8.990;2024-01-30T01:39:29;12.07;;;10.77;;
12768;SDS011;6448;48.916;8.990;2024-01-30T01:40:31;10.43;;;9.32;;
12768;SDS011;6448;48.916;8.990;2024-01-30T01:41:32;9.40;;;8.40;;
12768;SDS011;6448;48.916;8.990;2024-01-30T01:42:34;9.32;;;8.43;;
12768;SDS011;6448;48.916;8.990;2024-01-30T01:43:35;9.00;;;8.10;;
12768;SDS011;6448;48.916;8.990;2024-01-30T01:44:38;7.90;;;7.10;;
12768;SDS011;6448;48.916;8.990;2024-01-30T01:45:39;7.50;;;6.70;;
12768;SDS011;6448;48.916;8.990;2024-01-30T01:46:40;7.07;;;6.38;;
12768;SDS011;6448;48.916;8.990;2024-01-30T01:47:41;7.23;;;6.53;;
12768;SDS011;6448;48.916;8.990;2024-01-30T01:48:45;7.60;;;6.90;;
12768;SDS011;6448;48.916;8.990;2024-01-30T01:49:48;7.90;;;7.10;;
12768;SDS011;6448;48.916;8.990;2024-01-30T01:50:50;8.10;;;7.30;;
12768;SDS011;6448;48.916;8.990;2024-01-30T01:51:52;7.97;;;7.18;;
12768;SDS011;6448;48.916;8.990;2024-01-30T01:52:56;7.57;;;6.85;;
12768;SDS011;6448;48.916;8.990;2024-01-30T01:53:59;7.40;;;6.70;;
12768;SDS011;6448;48.916;8.990;2024-01-30T01:55:04;7.18;;;6.47;;
12768;SDS011;6448;48.916;8.990;2024-01-30T01:56:06;6.25;;;5.70;;
12768;SDS011;6448;48.916;8.990;2024-01-30T01:57:08;5.75;;;5.25;;
12768;SDS011;6448;48.916;8.990;2024-01-30T01:58:09;5.17;;;4.67;;
12768;SDS011;6448;48.916;8.990;2024-01-30T01:59:10;5.32;;;4.82;;
12768;SDS011;6448;48.916;8.990;2024-01-30T02:00:12;5.40;;;4.90;;
12768;SDS011;6448;48.916;8.990;2024-01-30T02:01:14;5.05;;;4.55;;
12768;SDS011;6448;48.916;8.990;2024-01-30T02:02:17;5.15;;;4.75;;
12768;SDS011;6448;48.916;8.990;2024-01-30T02:03:19;5.25;;;4.75;;
12768;SDS011;6448;48.916;8.990;2024-01-30T02:04:22;5.25;;;4.75;;
12768;SDS011;6448;48.916;8.990;2024-01-30T02:05:24;4.95;;;4.55;;
12768;SDS011;6448;48.916;8.990;2024-01-30T02:06:26;4.60;;;4.20;;
12768;SDS011;6448;48.916;8.990;2024-01-30T02:07:28;3.88;;;3.55;;
12768;SDS011;6448;48.916;8.990;2024-01-30T02:08:29;4.00;;;3.70;;
12768;SDS011;6448;48.916;8.990;2024-01-30T02:09:31;3.75;;;3.45;;
12768;SDS011;6448;48.916;8.990;2024-01-30T02:10:33;3.60;;;3.30;;
12768;SDS011;6448;48.916;8.990;2024-01-30T02:11:34;3.53;;;3.10;;
12768;SDS011;6448;48.916;8.990;2024-01-30T02:12:37;3.50;;;3.20;;
12768;SDS011;6448;48.916;8.990;2024-01-30T02:13:38;3.45;;;3.15;;
12768;SDS011;6448;48.916;8.990;2024-01-30T02:14:45;3.45;;;3.15;;
12768;SDS011;6448;48.916;8.990;2024-01-30T02:15:48;3.35;;;3.05;;
12768;SDS011;6448;48.916;8.990;2024-01-30T02:16:51;3.58;;;3.28;;
12768;SDS011;6448;48.916;8.990;2024-01-30T02:17:51;3.30;;;3.00;;
12768;SDS011;6448;48.916;8.990;2024-01-30T02:18:53;3.70;;;3.40;;
12768;SDS011;6448;48.916;8.990;2024-01-30T02:19:54;3.73;;;3.33;;
12768;SDS011;6448;48.916;8.990;2024-01-30T02:20:56;3.30;;;3.00;;
12768;SDS011;6448;48.916;8.990;2024-01-30T02:22:03;3.85;;;3.55;;
12768;SDS011;6448;48.916;8.990;2024-01-30T02:23:05;3.88;;;3.58;;
12768;SDS011;6448;48.916;8.990;2024-01-30T02:24:10;4.00;;;3.60;;
12768;SDS011;6448;48.916;8.990;2024-01-30T02:25:10;4.20;;;3.80;;
12768;SDS011;6448;48.916;8.990;2024-01-30T02:26:12;4.20;;;3.80;;
12768;SDS011;6448;48.916;8.990;2024-01-30T02:27:13;4.00;;;3.70;;
12768;SDS011;6448;48.916;8.990;2024-01-30T02:28:15;3.93;;;3.63;;
12768;SDS011;6448;48.916;8.990;2024-01-30T02:29:16;3.80;;;3.50;;
12768;SDS011;6448;48.916;8.990;2024-01-30T02:30:18;3.65;;;3.35;;
12768;SDS011;6448;48.916;8.990;2024-01-30T02:31:18;4.20;;;3.80;;
12768;SDS011;6448;48.916;8.990;2024-01-30T02:32:20;3.88;;;3.50;;
12768;SDS011;6448;48.916;8.990;2024-01-30T02:33:21;3.80;;;3.50;;
12768;SDS011;6448;48.916;8.990;2024-01-30T02:34:23;3.80;;;3.50;;
12768;SDS011;6448;48.916;8.990;2024-01-30T02:35:24;3.70;;;3.40;;
12768;SDS011;6448;48.916;8.990;2024-01-30T02:36:26;3.80;;;3.50;;
12768;SDS011;6448;48.916;8.990;2024-01-30T02:37:28;3.80;;;3.50;;
12768;SDS011;6448;48.916;8.990;2024-01-30T02:38:29;3.70;;;3.40;;
12768;SDS011;6448;48.916;8.990;2024-01-30T02:39:30;3.42;;;3.13;;
12768;SDS011;6448;48.916;8.990;2024-01-30T02:40:31;3.50;;;3.20;;
12768;SDS011;6448;48.916;8.990;2024-01-30T02:41:33;3.70;;;3.40;;
12768;SDS011;6448;48.916;8.990;2024-01-30T02:42:34;3.70;;;3.40;;
12768;SDS011;6448;48.916;8.990;2024-01-30T02:43:36;3.50;;;3.20;;
12768;SDS011;6448;48.916;8.990;2024-01-30T02:44:36;3.60;;;3.30;;
12768;SDS011;6448;48.916;8.990;2024-01-30T02:45:37;3.63;;;3.40;;
12768;SDS011;6448;48.916;8.990;2024-01-30T02:46:39;3.90;;;3.60;;
12768;SDS011;6448;48.916;8.990;2024-01-30T02:47:44;3.60;;;3.30;;
12768;SDS011;6448;48.916;8.990;2024-01-30T02:48:50;3.80;;;3.47;;
12768;SDS011;6448;48.916;8.990;2024-01-30T02:49:51;3.73;;;3.43;;
12768;SDS011;6448;48.916;8.990;2024-01-30T02:50:53;3.78;;;3.47;;
12768;SDS011;6448;48.916;8.990;2024-01-30T02:51:54;3.60;;;3.30;;
12768;SDS011;6448;48.916;8.990;2024-01-30T02:52:58;3.80;;;3.50;;
12768;SDS011;6448;48.916;8.990;2024-01-30T02:53:58;3.78;;;3.42;;
12768;SDS011;6448;48.916;8.990;2024-01-30T02:55:00;3.85;;;3.55;;
12768;SDS011;6448;48.916;8.990;2024-01-30T02:56:02;3.55;;;3.25;;
12768;SDS011;6448;48.916;8.990;2024-01-30T02:57:04;3.22;;;3.03;;
12768;SDS011;6448;48.916;8.990;2024-01-30T02:58:04;3.58;;;3.28;;
12768;SDS011;6448;48.916;8.990;2024-01-30T02:59:06;3.78;;;3.47;;
12768;SDS011;6448;48.916;8.990;2024-01-30T03:00:08;3.60;;;3.30;;
12768;SDS011;6448;48.916;8.990;2024-01-30T03:01:09;3.50;;;3.20;;
12768;SDS011;6448;48.916;8.990;2024-01-30T03:02:11;3.60;;;3.30;;
12768;SDS011;6448;48.916;8.990;2024-01-30T03:03:12;3.60;;;3.30;;
12768;SDS011;6448;48.916;8.990;2024-01-30T03:04:13;3.67;;;3.38;;
12768;SDS011;6448;48.916;8.990;2024-01-30T03:05:14;3.60;;;3.30;;
12768;SDS011;6448;48.916;8.990;2024-01-30T03:06:15;3.40;;;3.10;;
12768;SDS011;6448;48.916;8.990;2024-01-30T03:07:17;3.72;;;3.42;;
12768;SDS011;6448;48.916;8.990;2024-01-30T03:08:19;3.35;;;3.05;;
12768;SDS011;6448;48.916;8.990;2024-01-30T03:09:22;3.75;;;3.45;;
12768;SDS011;6448;48.916;8.990;2024-01-30T03:10:22;3.67;;;3.38;;
12768;SDS011;6448;48.916;8.990;2024-01-30T03:11:23;3.55;;;3.25;;
12768;SDS011;6448;48.916;8.990;2024-01-30T03:12:25;3.80;;;3.40;;
12768;SDS011;6448;48.916;8.990;2024-01-30T03:13:26;3.58;;;3.28;;
12768;SDS011;6448;48.916;8.990;2024-01-30T03:14:28;3.90;;;3.60;;
12768;SDS011;6448;48.916;8.990;2024-01-30T03:15:30;3.45;;;3.17;;
12768;SDS011;6448;48.916;8.990;2024-01-30T03:16:32;3.47;;;3.17;;
12768;SDS011;6448;48.916;8.990;2024-01-30T03:17:33;3.70;;;3.40;;
12768;SDS011;6448;48.916;8.990;2024-01-30T03:18:36;3.50;;;3.20;;
12768;SDS011;6448;48.916;8.990;2024-01-30T03:19:37;3.60;;;3.30;;
12768;SDS011;6448;48.916;8.990;2024-01-30T03:20:38;3.42;;;3.20;;
12768;SDS011;6448;48.916;8.990;2024-01-30T03:21:39;3.47;;;3.17;;
12768;SDS011;6448;48.916;8.990;2024-01-30T03:22:40;3.88;;;3.58;;
12768;SDS011;6448;48.916;8.990;2024-01-30T03:23:43;3.70;;;3.40;;
12768;SDS011;6448;48.916;8.990;2024-01-30T03:24:44;3.30;;;3.00;;
12768;SDS011;6448;48.916;8.990;2024-01-30T03:25:45;3.40;;;3.10;;
12768;SDS011;6448;48.916;8.990;2024-01-30T03:26:46;3.28;;;2.97;;
12768;SDS011;6448;48.916;8.990;2024-01-30T03:27:47;3.25;;;2.97;;
12768;SDS011;6448;48.916;8.990;2024-01-30T03:28:49;3.10;;;2.72;;
12768;SDS011;6448;48.916;8.990;2024-01-30T03:29:50;3.03;;;2.83;;
12768;SDS011;6448;48.916;8.990;2024-01-30T03:30:52;3.20;;;2.90;;
12768;SDS011;6448;48.916;8.990;2024-01-30T03:31:52;3.20;;;2.90;;
12768;SDS011;6448;48.916;8.990;2024-01-30T03:32:54;3.30;;;3.00;;
12768;SDS011;6448;48.916;8.990;2024-01-30T03:33:55;3.10;;;2.90;;
12768;SDS011;6448;48.916;8.990;2024-01-30T03:34:57;3.03;;;2.83;;
12768;SDS011;6448;48.916;8.990;2024-01-30T03:36:02;3.58;;;3.28;;
12768;SDS011;6448;48.916;8.990;2024-01-30T03:37:04;3.40;;;3.10;;
12768;SDS011;6448;48.916;8.990;2024-01-30T03:38:05;3.40;;;3.17;;
12768;SDS011;6448;48.916;8.990;2024-01-30T03:39:08;3.22;;;3.00;;
12768;SDS011;6448;48.916;8.990;2024-01-30T03:40:09;3.65;;;3.30;;
12768;SDS011;6448;48.916;8.990;2024-01-30T03:41:11;3.63;;;3.33;;
12768;SDS011;6448;48.916;8.990;2024-01-30T03:42:12;3.40;;;3.10;;
12768;SDS011;6448;48.916;8.990;2024-01-30T03:43:14;3.25;;;3.00;;
12768;SDS011;6448;48.916;8.990;2024-01-30T03:44:14;3.50;;;3.20;;
12768;SDS011;6448;48.916;8.990;2024-01-30T03:45:16;3.33;;;3.13;;
12768;SDS011;6448;48.916;8.990;2024-01-30T03:46:19;3.30;;;3.00;;
12768;SDS011;6448;48.916;8.990;2024-01-30T03:47:21;3.45;;;3.17;;
12768;SDS011;6448;48.916;8.990;2024-01-30T03:48:22;3.70;;;3.40;;
12768;SDS011;6448;48.916;8.990;2024-01-30T03:49:24;3.85;;;3.55;;
12768;SDS011;6448;48.916;8.990;2024-01-30T03:50:25;4.07;;;3.78;;
12768;SDS011;6448;48.916;8.990;2024-01-30T03:51:28;3.97;;;3.60;;
12768;SDS011;6448;48.916;8.990;2024-01-30T03:52:28;4.40;;;4.00;;
12768;SDS011;6448;48.916;8.990;2024-01-30T03:53:30;4.50;;;4.10;;
12768;SDS011;6448;48.916;8.990;2024-01-30T03:54:32;4.15;;;3.80;;
12768;SDS011;6448;48.916;8.990;2024-01-30T03:55:34;3.90;;;3.60;;
12768;SDS011;6448;48.916;8.990;2024-01-30T03:56:35;4.10;;;3.80;;
12768;SDS011;6448;48.916;8.990;2024-01-30T03:57:37;4.30;;;3.90;;
12768;SDS011;6448;48.916;8.990;2024-01-30T03:58:37;3.47;;;3.20;;
12768;SDS011;6448;48.916;8.990;2024-01-30T03:59:41;3.60;;;3.30;;
12768;SDS011;6448;48.916;8.990;2024-01-30T04:00:42;3.60;;;3.30;;
12768;SDS011;6448;48.916;8.990;2024-01-30T04:01:46;3.50;;;3.20;;
12768;SDS011;6448;48.916;8.990;2024-01-30T04:02:46;3.40;;;3.17;;
12768;SDS011;6448;48.916;8.990;2024-01-30T04:03:48;3.03;;;2.83;;
12768;SDS011;6448;48.916;8.990;2024-01-30T04:04:49;3.20;;;2.90;;
12768;SDS011;6448;48.916;8.990;2024-01-30T04:05:51;3.17;;;2.88;;
12768;SDS011;6448;48.916;8.990;2024-01-30T04:06:52;3.30;;;3.00;;
12768;SDS011;6448;48.916;8.990;2024-01-30T04:07:53;3.30;;;3.00;;
12768;SDS011;6448;48.916;8.990;2024-01-30T04:08:55;2.80;;;2.60;;
12768;SDS011;6448;48.916;8.990;2024-01-30T04:09:57;3.20;;;2.90;;
12768;SDS011;6448;48.916;8.990;2024-01-30T04:10:58;3.10;;;2.90;;
12768;SDS011;6448;48.916;8.990;2024-01-30T04:11:59;3.20;;;2.95;;
12768;SDS011;6448;48.916;8.990;2024-01-30T04:13:03;3.38;;;3.08;;
12768;SDS011;6448;48.916;8.990;2024-01-30T04:14:04;3.00;;;2.80;;
12768;SDS011;6448;48.916;8.990;2024-01-30T04:15:05;3.20;;;2.90;;
12768;SDS011;6448;48.916;8.990;2024-01-30T04:16:07;3.28;;;3.03;;
12768;SDS011;6448;48.916;8.990;2024-01-30T04:17:08;3.40;;;3.10;;
12768;SDS011;6448;48.916;8.990;2024-01-30T04:18:10;3.22;;;3.00;;
12768;SDS011;6448;48.916;8.990;2024-01-30T04:19:11;3.67;;;3.38;;
12768;SDS011;6448;48.916;8.990;2024-01-30T04:20:13;3.45;;;3.15;;
12768;SDS011;6448;48.916;8.990;2024-01-30T04:21:15;3.60;;;3.30;;
12768;SDS011;6448;48.916;8.990;2024-01-30T04:22:17;3.60;;;3.30;;
12768;SDS011;6448;48.916;8.990;2024-01-30T04:23:17;3.70;;;3.40;;
12768;SDS011;6448;48.916;8.990;2024-01-30T04:24:18;3.67;;;3.38;;
12768;SDS011;6448;48.916;8.990;2024-01-30T04:25:21;3.30;;;3.00;;
12768;SDS011;6448;48.916;8.990;2024-01-30T04:26:22;3.72;;;3.42;;
12768;SDS011;6448;48.916;8.990;2024-01-30T04:27:24;3.75;;;3.45;;
12768;SDS011;6448;48.916;8.990;2024-01-30T04:28:24;3.75;;;3.45;;
12768;SDS011;6448;48.916;8.990;2024-01-30T04:29:25;3.72;;;3.42;;
12768;SDS011;6448;48.916;8.990;2024-01-30T04:30:27;3.95;;;3.65;;
12768;SDS011;6448;48.916;8.990;2024-01-30T04:31:28;3.95;;;3.65;;
12768;SDS011;6448;48.916;8.990;2024-01-30T04:32:29;3.88;;;3.58;;
12768;SDS011;6448;48.916;8.990;2024-01-30T04:33:30;3.92;;;3.63;;
12768;SDS011;6448;48.916;8.990;2024-01-30T04:34:32;3.70;;;3.40;;
12768;SDS011;6448;48.916;8.990;2024-01-30T04:35:33;3.83;;;3.53;;
12768;SDS011;6448;48.916;8.990;2024-01-30T04:36:34;3.92;;;3.63;;
12768;SDS011;6448;48.916;8.990;2024-01-30T04:37:36;4.00;;;3.60;;
12768;SDS011;6448;48.916;8.990;2024-01-30T04:38:37;3.83;;;3.53;;
12768;SDS011;6448;48.916;8.990;2024-01-30T04:39:39;3.80;;;3.50;;
12768;SDS011;6448;48.916;8.990;2024-01-30T04:40:41;4.30;;;3.90;;
12768;SDS011;6448;48.916;8.990;2024-01-30T04:41:41;4.10;;;3.80;;
12768;SDS011;6448;48.916;8.990;2024-01-30T04:42:43;4.47;;;4.07;;
12768;SDS011;6448;48.916;8.990;2024-01-30T04:43:44;4.50;;;4.10;;
12768;SDS011;6448;48.916;8.990;2024-01-30T04:44:46;4.00;;;3.70;;
12768;SDS011;6448;48.916;8.990;2024-01-30T04:45:47;4.90;;;3.85;;
12768;SDS011;6448;48.916;8.990;2024-01-30T04:46:48;4.15;;;3.75;;
12768;SDS011;6448;48.916;8.990;2024-01-30T04:47:49;3.78;;;3.47;;
12768;SDS011;6448;48.916;8.990;2024-01-30T04:48:51;3.70;;;3.40;;
12768;SDS011;6448;48.916;8.990;2024-01-30T04:49:52;3.85;;;3.55;;
12768;SDS011;6448;48.916;8.990;2024-01-30T04:50:53;3.63;;;3.33;;
12768;SDS011;6448;48.916;8.990;2024-01-30T04:51:56;3.77;;;3.47;;
12768;SDS011;6448;48.916;8.990;2024-01-30T04:52:57;4.63;;;3.50;;
12768;SDS011;6448;48.916;8.990;2024-01-30T04:53:58;3.70;;;3.40;;
12768;SDS011;6448;48.916;8.990;2024-01-30T04:55:00;4.03;;;3.72;;
12768;SDS011;6448;48.916;8.990;2024-01-30T04:56:02;3.88;;;3.58;;
12768;SDS011;6448;48.916;8.990;2024-01-30T04:57:06;3.60;;;3.30;;
12768;SDS011;6448;48.916;8.990;2024-01-30T04:58:09;3.60;;;3.30;;
12768;SDS011;6448;48.916;8.990;2024-01-30T04:59:11;3.50;;;3.20;;
12768;SDS011;6448;48.916;8.990;2024-01-30T05:00:12;3.55;;;3.28;;
12768;SDS011;6448;48.916;8.990;2024-01-30T05:01:15;3.72;;;3.42;;
12768;SDS011;6448;48.916;8.990;2024-01-30T05:02:16;3.30;;;3.10;;
12768;SDS011;6448;48.916;8.990;2024-01-30T05:03:18;3.57;;;3.27;;
12768;SDS011;6448;48.916;8.990;2024-01-30T05:04:19;3.42;;;3.13;;
12768;SDS011;6448;48.916;8.990;2024-01-30T05:05:22;3.50;;;3.20;;
12768;SDS011;6448;48.916;8.990;2024-01-30T05:06:25;3.60;;;3.30;;
12768;SDS011;6448;48.916;8.990;2024-01-30T05:07:27;3.50;;;3.20;;
12768;SDS011;6448;48.916;8.990;2024-01-30T05:08:28;3.78;;;3.47;;
12768;SDS011;6448;48.916;8.990;2024-01-30T05:09:29;3.87;;;3.57;;
12768;SDS011;6448;48.916;8.990;2024-01-30T05:10:31;3.80;;;3.50;;
12768;SDS011;6448;48.916;8.990;2024-01-30T05:11:33;3.87;;;3.57;;
12768;SDS011;6448;48.916;8.990;2024-01-30T05:12:38;4.38;;;3.97;;
12768;SDS011;6448;48.916;8.990;2024-01-30T05:13:40;3.90;;;3.60;;
12768;SDS011;6448;48.916;8.990;2024-01-30T05:14:41;3.87;;;3.57;;
12768;SDS011;6448;48.916;8.990;2024-01-30T05:15:42;3.55;;;3.25;;
12768;SDS011;6448;48.916;8.990;2024-01-30T05:16:43;4.00;;;3.70;;
12768;SDS011;6448;48.916;8.990;2024-01-30T05:17:46;3.63;;;3.33;;
12768;SDS011;6448;48.916;8.990;2024-01-30T05:18:47;3.90;;;3.60;;
12768;SDS011;6448;48.916;8.990;2024-01-30T05:19:49;3.83;;;3.42;;
12768;SDS011;6448;48.916;8.990;2024-01-30T05:20:50;3.87;;;3.57;;
12768;SDS011;6448;48.916;8.990;2024-01-30T05:21:52;3.65;;;3.35;;
12768;SDS011;6448;48.916;8.990;2024-01-30T05:22:52;3.70;;;3.40;;
12768;SDS011;6448;48.916;8.990;2024-01-30T05:23:54;3.53;;;3.22;;
12768;SDS011;6448;48.916;8.990;2024-01-30T05:24:55;3.63;;;3.33;;
12768;SDS011;6448;48.916;8.990;2024-01-30T05:25:56;3.90;;;3.50;;
12768;SDS011;6448;48.916;8.990;2024-01-30T05:26:59;4.22;;;3.85;;
12768;SDS011;6448;48.916;8.990;2024-01-30T05:27:59;4.90;;;4.50;;
12768;SDS011;6448;48.916;8.990;2024-01-30T05:29:01;5.25;;;4.75;;
12768;SDS011;6448;48.916;8.990;2024-01-30T05:30:02;5.07;;;4.68;;
12768;SDS011;6448;48.916;8.990;2024-01-30T05:31:05;4.82;;;4.43;;
12768;SDS011;6448;48.916;8.990;2024-01-30T05:32:05;5.70;;;5.20;;
12768;SDS011;6448;48.916;8.990;2024-01-30T05:33:07;7.15;;;6.45;;
12768;SDS011;6448;48.916;8.990;2024-01-30T05:34:08;6.18;;;5.68;;
12768;SDS011;6448;48.916;8.990;2024-01-30T05:35:09;5.63;;;5.13;;
12768;SDS011;6448;48.916;8.990;2024-01-30T05:36:11;4.60;;;4.20;;
12768;SDS011;6448;48.916;8.990;2024-01-30T05:37:12;4.10;;;3.80;;
12768;SDS011;6448;48.916;8.990;2024-01-30T05:38:17;4.00;;;3.70;;
12768;SDS011;6448;48.916;8.990;2024-01-30T05:39:17;3.80;;;3.50;;
12768;SDS011;6448;48.916;8.990;2024-01-30T05:40:18;3.60;;;3.30;;
12768;SDS011;6448;48.916;8.990;2024-01-30T05:41:20;3.42;;;3.22;;
12768;SDS011;6448;48.916;8.990;2024-01-30T05:42:22;3.88;;;3.58;;
12768;SDS011;6448;48.916;8.990;2024-01-30T05:43:23;3.38;;;3.13;;
12768;SDS011;6448;48.916;8.990;2024-01-30T05:44:25;3.55;;;3.25;;
12768;SDS011;6448;48.916;8.990;2024-01-30T05:45:25;3.63;;;3.33;;
12768;SDS011;6448;48.916;8.990;2024-01-30T05:46:27;3.90;;;3.60;;
12768;SDS011;6448;48.916;8.990;2024-01-30T05:47:28;3.60;;;3.30;;
12768;SDS011;6448;48.916;8.990;2024-01-30T05:48:29;3.78;;;3.47;;
12768;SDS011;6448;48.916;8.990;2024-01-30T05:49:30;3.40;;;3.20;;
12768;SDS011;6448;48.916;8.990;2024-01-30T05:50:31;3.90;;;3.50;;
12768;SDS011;6448;48.916;8.990;2024-01-30T05:51:32;3.60;;;3.30;;
12768;SDS011;6448;48.916;8.990;2024-01-30T05:52:34;3.70;;;3.40;;
12768;SDS011;6448;48.916;8.990;2024-01-30T05:53:35;3.38;;;3.08;;
12768;SDS011;6448;48.916;8.990;2024-01-30T05:54:36;3.63;;;3.33;;
12768;SDS011;6448;48.916;8.990;2024-01-30T05:55:37;3.58;;;3.28;;
12768;SDS011;6448;48.916;8.990;2024-01-30T05:56:39;3.40;;;3.10;;
12768;SDS011;6448;48.916;8.990;2024-01-30T05:57:41;3.63;;;3.33;;
12768;SDS011;6448;48.916;8.990;2024-01-30T05:58:43;3.30;;;3.00;;
12768;SDS011;6448;48.916;8.990;2024-01-30T05:59:44;3.50;;;3.20;;
12768;SDS011;6448;48.916;8.990;2024-01-30T06:00:47;3.50;;;3.20;;
12768;SDS011;6448;48.916;8.990;2024-01-30T06:01:48;4.05;;;3.72;;
12768;SDS011;6448;48.916;8.990;2024-01-30T06:02:50;4.70;;;4.30;;
12768;SDS011;6448;48.916;8.990;2024-01-30T06:03:50;4.63;;;4.22;;
12768;SDS011;6448;48.916;8.990;2024-01-30T06:04:52;5.07;;;4.68;;
12768;SDS011;6448;48.916;8.990;2024-01-30T06:05:53;5.50;;;5.10;;
12768;SDS011;6448;48.916;8.990;2024-01-30T06:06:55;5.75;;;5.30;;
12768;SDS011;6448;48.916;8.990;2024-01-30T06:07:55;5.70;;;5.20;;
12768;SDS011;6448;48.916;8.990;2024-01-30T06:08:56;5.65;;;5.15;;
12768;SDS011;6448;48.916;8.990;2024-01-30T06:09:58;5.03;;;4.63;;
12768;SDS011;6448;48.916;8.990;2024-01-30T06:11:00;5.15;;;4.70;;
12768;SDS011;6448;48.916;8.990;2024-01-30T06:12:02;5.07;;;4.57;;
12768;SDS011;6448;48.916;8.990;2024-01-30T06:13:06;4.88;;;4.47;;
12768;SDS011;6448;48.916;8.990;2024-01-30T06:14:08;5.10;;;4.70;;
12768;SDS011;6448;48.916;8.990;2024-01-30T06:15:09;4.70;;;4.30;;
12768;SDS011;6448;48.916;8.990;2024-01-30T06:16:12;5.00;;;4.60;;
12768;SDS011;6448;48.916;8.990;2024-01-30T06:17:13;4.80;;;4.40;;